Time;durP1;ratioP1;P1;durP2;ratioP2;P2;SDS_P1;SDS_P2;PMS_P1;PMS_P2;Temp;Humidity;BMP_temperature;BMP_pressure;BME280_temperature;BME280_humidity;BME280_pressure;Samples;Min_cycle;Max_cycle;Signal;HPM_P1;HPM_P2
2022/04/25 00:02:01;;;;;;;;;17.50;13.25;;;;;;;;5053615;28;45435;-69
2022/04/25 00:04:26;;;;;;;;;18.50;13.25;;;;;;;;5038017;28;45958;-69
2022/04/25 00:06:51;;;;;;;;;18.25;16.50;;;;;;;;5052939;28;47588;-69
2022/04/25 00:09:17;;;;;;;;;18.25;14.50;;;;;;;;5052657;28;45399;-68
2022/04/25 00:11:42;;;;;;;;;19.00;16.50;;;;;;;;5052946;28;45293;-69
2022/04/25 00:14:07;;;;;;;;;15.75;15.25;;;;;;;;5054222;28;46155;-69
2022/04/25 00:16:33;;;;;;;;;18.75;17.00;;;;;;;;5052192;28;45467;-69
2022/04/25 00:19:00;;;;;;;;;16.25;14.25;;;;;;;;5052432;28;45410;-69
2022/04/25 00:21:25;;;;;;;;;16.75;16.75;;;;;;;;5051358;28;45418;-68
2022/04/25 00:23:51;;;;;;;;;23.00;21.50;;;;;;;;5051989;28;46401;-68
2022/04/25 00:26:16;;;;;;;;;19.00;17.75;;;;;;;;5056438;28;45518;-68
2022/04/25 00:28:42;;;;;;;;;17.75;14.50;;;;;;;;5055662;28;45581;-68
2022/04/25 00:31:07;;;;;;;;;18.75;18.00;;;;;;;;5056629;28;45513;-68
2022/04/25 00:33:33;;;;;;;;;19.25;15.75;;;;;;;;5055774;28;45859;-68
2022/04/25 00:35:58;;;;;;;;;19.75;15.25;;;;;;;;5057132;28;45334;-68
2022/04/25 00:38:23;;;;;;;;;17.75;14.25;;;;;;;;5057898;28;45367;-68
2022/04/25 00:40:48;;;;;;;;;19.00;16.75;;;;;;;;5055972;28;45458;-69
2022/04/25 00:43:13;;;;;;;;;17.00;15.50;;;;;;;;5055484;28;45452;-69
2022/04/25 00:45:38;;;;;;;;;18.00;16.25;;;;;;;;5055268;28;45522;-68
2022/04/25 00:48:04;;;;;;;;;18.75;17.50;;;;;;;;5056104;28;45455;-68
2022/04/25 00:50:29;;;;;;;;;18.00;16.00;;;;;;;;5057088;28;45361;-68
2022/04/25 00:52:55;;;;;;;;;19.00;14.25;;;;;;;;5055693;28;46979;-68
2022/04/25 00:55:20;;;;;;;;;18.00;17.00;;;;;;;;5055417;28;45675;-69
2022/04/25 00:57:45;;;;;;;;;24.50;18.50;;;;;;;;5055204;28;45462;-68
2022/04/25 01:00:12;;;;;;;;;17.00;16.75;;;;;;;;5055880;28;45606;-69
2022/04/25 01:02:38;;;;;;;;;19.50;16.50;;;;;;;;5056113;28;47052;-68
2022/04/25 01:05:04;;;;;;;;;17.00;13.75;;;;;;;;5056641;28;45449;-69
2022/04/25 01:07:30;;;;;;;;;25.50;21.00;;;;;;;;5055626;28;45320;-69
2022/04/25 01:09:56;;;;;;;;;23.00;21.00;;;;;;;;5056411;28;45273;-69
2022/04/25 01:12:21;;;;;;;;;23.00;21.75;;;;;;;;5055523;28;45462;-69
2022/04/25 01:14:46;;;;;;;;;32.25;26.50;;;;;;;;5055172;28;45436;-68
2022/04/25 01:17:11;;;;;;;;;31.25;29.25;;;;;;;;5057471;28;45252;-68
2022/04/25 01:19:36;;;;;;;;;28.50;27.75;;;;;;;;5054800;28;45540;-69
2022/04/25 01:22:05;;;;;;;;;34.50;27.50;;;;;;;;5050842;28;46108;-69
2022/04/25 01:27:18;;;;;;;;;38.75;35.75;;;;;;;;5041861;28;45524;-69
2022/04/25 01:29:43;;;;;;;;;33.25;28.50;;;;;;;;5054399;28;45485;-68
2022/04/25 01:32:09;;;;;;;;;33.20;27.00;;;;;;;;5057158;28;45883;-69
2022/04/25 01:34:37;;;;;;;;;27.25;25.25;;;;;;;;5054537;28;45462;-68
2022/04/25 01:37:05;;;;;;;;;23.25;18.75;;;;;;;;5053370;28;45326;-69
2022/04/25 01:39:30;;;;;;;;;20.50;13.75;;;;;;;;5054694;28;45503;-70
2022/04/25 01:41:55;;;;;;;;;21.25;17.00;;;;;;;;5054662;28;47138;-69
2022/04/25 01:44:20;;;;;;;;;21.75;17.00;;;;;;;;5056338;28;45542;-70
2022/04/25 01:46:45;;;;;;;;;21.00;19.50;;;;;;;;5054674;28;45646;-68
2022/04/25 01:49:11;;;;;;;;;14.50;11.50;;;;;;;;5054516;28;45405;-69
2022/04/25 01:51:38;;;;;;;;;13.25;13.25;;;;;;;;5054602;28;46232;-70
2022/04/25 01:54:04;;;;;;;;;15.00;13.75;;;;;;;;5054831;28;45412;-70
2022/04/25 01:56:29;;;;;;;;;16.50;15.75;;;;;;;;5056406;28;45277;-69
2022/04/25 01:58:54;;;;;;;;;19.50;17.00;;;;;;;;5054986;28;45756;-70
2022/04/25 02:01:19;;;;;;;;;19.50;18.25;;;;;;;;5055607;28;45397;-70
2022/04/25 02:03:46;;;;;;;;;17.25;14.75;;;;;;;;5054677;28;45316;-70
2022/04/25 02:06:11;;;;;;;;;14.50;14.50;;;;;;;;5054749;28;45348;-69
2022/04/25 02:08:37;;;;;;;;;15.50;15.25;;;;;;;;5055368;28;45477;-70
2022/04/25 02:11:22;;;;;;;;;21.25;13.00;;;;;;;;5053671;28;46409;-70
2022/04/25 02:13:50;;;;;;;;;15.75;12.00;;;;;;;;5053706;28;45454;-69
2022/04/25 02:16:15;;;;;;;;;17.75;16.75;;;;;;;;5054448;28;45423;-70
2022/04/25 02:18:40;;;;;;;;;19.25;16.50;;;;;;;;5053667;28;45349;-70
2022/04/25 02:21:05;;;;;;;;;18.50;17.00;;;;;;;;5052922;28;46066;-70
2022/04/25 02:23:31;;;;;;;;;18.25;16.75;;;;;;;;5055759;28;45456;-70
2022/04/25 02:25:56;;;;;;;;;18.25;17.00;;;;;;;;5055068;28;45425;-70
2022/04/25 02:28:21;;;;;;;;;18.00;15.75;;;;;;;;5053850;28;45276;-70
2022/04/25 02:30:46;;;;;;;;;18.00;16.25;;;;;;;;5053804;28;45493;-70
2022/04/25 02:33:12;;;;;;;;;15.50;15.25;;;;;;;;5053780;28;45485;-70
2022/04/25 02:35:37;;;;;;;;;19.75;17.00;;;;;;;;5037245;28;45523;-70
2022/04/25 02:38:02;;;;;;;;;19.00;17.25;;;;;;;;5041387;28;45583;-70
2022/04/25 02:40:28;;;;;;;;;20.50;20.50;;;;;;;;5054445;28;46337;-70
2022/04/25 02:42:53;;;;;;;;;19.25;18.50;;;;;;;;5053661;28;45470;-70
2022/04/25 02:45:18;;;;;;;;;21.25;17.25;;;;;;;;5054764;28;45439;-70
2022/04/25 02:47:44;;;;;;;;;19.50;19.00;;;;;;;;5052924;28;45548;-70
2022/04/25 02:50:09;;;;;;;;;19.00;17.50;;;;;;;;5055192;28;47131;-70
2022/04/25 02:52:34;;;;;;;;;21.25;19.25;;;;;;;;5052134;28;45502;-70
2022/04/25 02:54:59;;;;;;;;;18.00;18.00;;;;;;;;5053416;28;45455;-69
2022/04/25 02:57:25;;;;;;;;;22.75;20.75;;;;;;;;5053982;28;45278;-70
2022/04/25 02:59:50;;;;;;;;;21.25;17.25;;;;;;;;5053457;28;45923;-69
2022/04/25 03:02:15;;;;;;;;;18.75;15.50;;;;;;;;5054985;28;45435;-70
2022/04/25 03:04:40;;;;;;;;;22.00;20.25;;;;;;;;5053714;28;45210;-70
2022/04/25 03:07:06;;;;;;;;;23.75;18.25;;;;;;;;5053703;28;45245;-69
2022/04/25 03:09:31;;;;;;;;;22.00;17.75;;;;;;;;5052772;28;45274;-70
2022/04/25 03:11:57;;;;;;;;;27.75;22.00;;;;;;;;5053390;28;45432;-69
2022/04/25 03:14:23;;;;;;;;;23.00;20.25;;;;;;;;5055215;28;45531;-70
2022/04/25 03:16:49;;;;;;;;;21.00;21.00;;;;;;;;5053884;28;45542;-70
2022/04/25 03:19:15;;;;;;;;;21.75;20.25;;;;;;;;5051996;28;46252;-70
2022/04/25 03:21:41;;;;;;;;;24.25;21.75;;;;;;;;5053413;28;45454;-70
2022/04/25 03:24:07;;;;;;;;;24.50;21.00;;;;;;;;5053161;28;45554;-70
2022/04/25 03:26:32;;;;;;;;;20.50;20.50;;;;;;;;5054660;28;45389;-70
2022/04/25 03:28:57;;;;;;;;;21.50;19.25;;;;;;;;5053520;28;46342;-69
2022/04/25 03:31:22;;;;;;;;;22.50;20.50;;;;;;;;5052493;28;45299;-69
2022/04/25 03:33:47;;;;;;;;;22.00;19.25;;;;;;;;5053179;28;45590;-70
2022/04/25 03:36:14;;;;;;;;;19.00;18.00;;;;;;;;5053300;28;45522;-70
2022/04/25 03:38:42;;;;;;;;;16.50;15.50;;;;;;;;5052886;28;47245;-70
2022/04/25 03:41:07;;;;;;;;;22.75;19.75;;;;;;;;5054875;28;45336;-70
2022/04/25 03:43:34;;;;;;;;;23.75;20.75;;;;;;;;5052649;28;45548;-70
2022/04/25 03:45:59;;;;;;;;;22.25;21.25;;;;;;;;5052685;28;45512;-70
2022/04/25 03:48:24;;;;;;;;;18.75;18.75;;;;;;;;5052247;28;46076;-70
2022/04/25 03:50:50;;;;;;;;;25.00;23.25;;;;;;;;5052968;28;46118;-70
2022/04/25 03:53:15;;;;;;;;;27.75;23.75;;;;;;;;5054569;28;45384;-70
2022/04/25 03:58:24;;;;;;;;;22.50;19.25;;;;;;;;5052473;28;45999;-70
2022/04/25 04:00:50;;;;;;;;;26.00;21.75;;;;;;;;5053338;28;45488;-70
2022/04/25 04:03:15;;;;;;;;;25.50;22.00;;;;;;;;5056415;28;45331;-70
2022/04/25 04:05:42;;;;;;;;;23.50;22.75;;;;;;;;5057699;28;45427;-70
2022/04/25 04:08:07;;;;;;;;;26.50;26.50;;;;;;;;5057360;28;46160;-70
2022/04/25 04:10:32;;;;;;;;;25.75;21.00;;;;;;;;5055441;28;45442;-70
2022/04/25 04:12:59;;;;;;;;;28.00;24.25;;;;;;;;5055194;28;45375;-71
2022/04/25 04:15:24;;;;;;;;;22.00;20.75;;;;;;;;5055712;28;46133;-70
2022/04/25 04:17:50;;;;;;;;;26.25;21.75;;;;;;;;5056060;28;47095;-70
2022/04/25 04:20:15;;;;;;;;;21.25;20.50;;;;;;;;5057081;28;45308;-70
2022/04/25 04:22:40;;;;;;;;;27.00;23.50;;;;;;;;5055667;28;45459;-70
2022/04/25 04:25:07;;;;;;;;;29.25;27.75;;;;;;;;5055294;28;45416;-69
2022/04/25 04:27:32;;;;;;;;;27.75;26.50;;;;;;;;5055309;28;46159;-69
2022/04/25 04:30:02;;;;;;;;;25.00;22.50;;;;;;;;5055015;28;45506;-69
2022/04/25 04:32:31;;;;;;;;;28.00;25.25;;;;;;;;5053394;28;45294;-70
2022/04/25 04:34:56;;;;;;;;;27.25;25.75;;;;;;;;5055625;28;45317;-69
2022/04/25 04:37:21;;;;;;;;;30.25;27.50;;;;;;;;5054732;28;45585;-68
2022/04/25 04:39:47;;;;;;;;;33.00;29.50;;;;;;;;5055155;28;45275;-70
2022/04/25 04:42:12;;;;;;;;;29.50;27.25;;;;;;;;5055566;28;45433;-70
2022/04/25 04:44:37;;;;;;;;;33.50;30.50;;;;;;;;5055073;28;45394;-70
2022/04/25 04:47:03;;;;;;;;;29.75;24.00;;;;;;;;5055253;28;47089;-70
2022/04/25 04:49:28;;;;;;;;;34.50;30.00;;;;;;;;5054708;28;45473;-70
2022/04/25 04:51:54;;;;;;;;;31.75;27.25;;;;;;;;5054846;28;45481;-70
2022/04/25 04:54:19;;;;;;;;;32.75;31.50;;;;;;;;5054782;28;45496;-70
2022/04/25 04:56:45;;;;;;;;;36.50;32.50;;;;;;;;5051969;28;46123;-70
2022/04/25 04:59:10;;;;;;;;;34.75;32.25;;;;;;;;5056347;28;45356;-70
2022/04/25 05:01:35;;;;;;;;;42.75;35.00;;;;;;;;5054844;28;45360;-69
2022/04/25 05:04:00;;;;;;;;;39.75;32.50;;;;;;;;5053945;28;45481;-70
2022/04/25 05:06:26;;;;;;;;;39.75;34.00;;;;;;;;5054305;28;45312;-69
2022/04/25 05:08:51;;;;;;;;;32.25;30.50;;;;;;;;5054160;28;45346;-68
2022/04/25 05:11:17;;;;;;;;;48.25;37.50;;;;;;;;5056610;28;45301;-68
2022/04/25 05:13:42;;;;;;;;;42.75;34.50;;;;;;;;5053534;28;45613;-68
2022/04/25 05:16:07;;;;;;;;;37.50;32.75;;;;;;;;5054283;28;47057;-69
2022/04/25 05:18:33;;;;;;;;;42.75;33.25;;;;;;;;5054350;28;45499;-70
2022/04/25 05:20:59;;;;;;;;;40.00;32.00;;;;;;;;5054477;28;45452;-71
2022/04/25 05:23:25;;;;;;;;;42.25;34.75;;;;;;;;5055787;28;45438;-70
2022/04/25 05:25:50;;;;;;;;;39.75;34.25;;;;;;;;5053871;28;46061;-70
2022/04/25 05:28:15;;;;;;;;;38.50;34.75;;;;;;;;5053756;28;45297;-69
2022/04/25 05:30:42;;;;;;;;;40.75;33.50;;;;;;;;5053509;28;45500;-69
2022/04/25 05:33:07;;;;;;;;;43.00;33.50;;;;;;;;5053015;28;45385;-70
2022/04/25 05:35:33;;;;;;;;;45.00;37.25;;;;;;;;5055121;28;45698;-70
2022/04/25 05:37:59;;;;;;;;;41.00;35.50;;;;;;;;5053845;28;45504;-70
2022/04/25 05:40:27;;;;;;;;;43.25;34.75;;;;;;;;5052905;28;45542;-69
2022/04/25 05:42:53;;;;;;;;;47.25;37.75;;;;;;;;5053539;28;45276;-69
2022/04/25 05:45:22;;;;;;;;;45.00;37.25;;;;;;;;5052968;28;47079;-69
2022/04/25 05:47:48;;;;;;;;;48.00;39.00;;;;;;;;5053692;28;45633;-71
2022/04/25 05:52:58;;;;;;;;;42.25;36.75;;;;;;;;5052674;28;45404;-69
2022/04/25 05:55:23;;;;;;;;;44.25;38.00;;;;;;;;5052628;28;45501;-71
2022/04/25 05:57:50;;;;;;;;;46.00;37.75;;;;;;;;5056152;28;45435;-70
2022/04/25 06:00:15;;;;;;;;;44.75;36.75;;;;;;;;5061632;28;45528;-69
2022/04/25 06:02:41;;;;;;;;;47.75;39.00;;;;;;;;5053983;28;45317;-71
2022/04/25 06:05:07;;;;;;;;;45.50;39.25;;;;;;;;5062176;28;45445;-69
2022/04/25 06:07:33;;;;;;;;;43.75;37.25;;;;;;;;5057511;28;45454;-68
2022/04/25 06:09:59;;;;;;;;;48.00;39.50;;;;;;;;5051978;28;45260;-69
2022/04/25 06:12:24;;;;;;;;;46.00;37.75;;;;;;;;5040673;28;45383;-68
2022/04/25 06:14:52;;;;;;;;;45.25;38.75;;;;;;;;5035828;28;47554;-69
2022/04/25 06:17:18;;;;;;;;;52.50;43.50;;;;;;;;5063938;28;45451;-70
2022/04/25 06:19:43;;;;;;;;;43.75;37.25;;;;;;;;5053948;28;45630;-69
2022/04/25 06:22:09;;;;;;;;;42.50;36.50;;;;;;;;5052383;28;45520;-69
2022/04/25 06:24:35;;;;;;;;;50.00;38.00;;;;;;;;5051436;28;45959;-71
2022/04/25 06:27:02;;;;;;;;;45.75;37.00;;;;;;;;5049916;28;45702;-70
2022/04/25 06:29:29;;;;;;;;;48.00;39.00;;;;;;;;5047175;28;45449;-69
2022/04/25 06:31:54;;;;;;;;;50.00;40.00;;;;;;;;5052196;28;45324;-69
2022/04/25 06:34:19;;;;;;;;;46.25;39.50;;;;;;;;5051999;28;45418;-69
2022/04/25 06:36:46;;;;;;;;;51.75;43.75;;;;;;;;5053602;28;45371;-69
2022/04/25 06:39:12;;;;;;;;;57.50;44.00;;;;;;;;5055132;28;45403;-69
2022/04/25 06:41:38;;;;;;;;;50.75;42.75;;;;;;;;5056937;28;45492;-69
2022/04/25 06:44:06;;;;;;;;;48.75;39.75;;;;;;;;5057259;28;45570;-69
2022/04/25 06:46:33;;;;;;;;;53.75;44.00;;;;;;;;5055527;28;47239;-68
2022/04/25 06:51:45;;;;;;;;;49.75;39.75;;;;;;;;5056603;28;45488;-69
2022/04/25 06:54:13;;;;;;;;;48.50;39.50;;;;;;;;5054758;28;46446;-69
2022/04/25 06:56:40;;;;;;;;;52.50;43.00;;;;;;;;5054711;28;45341;-70
2022/04/25 06:59:07;;;;;;;;;48.25;41.25;;;;;;;;5041883;28;45564;-67
2022/04/25 07:01:36;;;;;;;;;49.00;41.75;;;;;;;;5060457;27;45520;-67
2022/04/25 07:04:03;;;;;;;;;48.75;39.75;;;;;;;;5056192;28;46657;-68
2022/04/25 07:06:29;;;;;;;;;51.75;39.50;;;;;;;;5053903;28;45522;-68
2022/04/25 07:08:55;;;;;;;;;52.00;41.75;;;;;;;;5068855;27;45457;-69
2022/04/25 07:11:20;;;;;;;;;50.00;41.50;;;;;;;;5053656;28;45519;-68
2022/04/25 07:13:45;;;;;;;;;49.00;40.50;;;;;;;;5050001;28;46884;-68
2022/04/25 07:16:13;;;;;;;;;52.50;43.00;;;;;;;;5056089;27;45488;-68
2022/04/25 07:18:39;;;;;;;;;57.75;46.00;;;;;;;;5050900;28;45574;-68
2022/04/25 07:29:22;;;;;;;;;47.25;38.50;;;;;;;;5053734;28;45407;-67
2022/04/25 07:31:47;;;;;;;;;47.25;39.50;;;;;;;;5051333;28;45237;-68
2022/04/25 07:34:13;;;;;;;;;51.00;42.75;;;;;;;;5051326;28;46350;-69
2022/04/25 07:36:38;;;;;;;;;52.00;43.25;;;;;;;;5051166;28;45192;-69
2022/04/25 07:39:03;;;;;;;;;53.50;42.25;;;;;;;;5051106;28;45459;-68
2022/04/25 07:41:28;;;;;;;;;63.25;48.75;;;;;;;;5052601;28;45327;-68
2022/04/25 07:43:54;;;;;;;;;50.00;41.00;;;;;;;;5037549;28;48102;-69
2022/04/25 07:46:23;;;;;;;;;49.00;40.75;;;;;;;;5051068;28;45521;-69
2022/04/25 07:48:48;;;;;;;;;57.25;44.75;;;;;;;;5050966;28;45472;-69
2022/04/25 07:51:13;;;;;;;;;48.25;40.00;;;;;;;;5051322;28;45292;-67
2022/04/25 07:53:38;;;;;;;;;54.75;43.75;;;;;;;;5052278;28;46244;-70
2022/04/25 07:56:04;;;;;;;;;46.25;39.25;;;;;;;;5052934;28;45480;-69
2022/04/25 07:58:29;;;;;;;;;53.25;42.50;;;;;;;;5051349;28;45368;-70
2022/04/25 08:00:56;;;;;;;;;53.00;43.25;;;;;;;;5051253;28;45504;-69
2022/04/25 08:03:21;;;;;;;;;52.00;42.00;;;;;;;;5051105;28;46122;-69
2022/04/25 08:05:46;;;;;;;;;46.50;39.75;;;;;;;;5051129;28;45463;-68
2022/04/25 08:08:12;;;;;;;;;51.00;41.75;;;;;;;;5053226;28;45601;-69
2022/04/25 08:10:37;;;;;;;;;49.50;41.25;;;;;;;;5051291;28;45445;-68
2022/04/25 08:18:30;;;;;;;;;52.50;41.75;;;;;;;;5051316;28;45398;-69
2022/04/25 08:20:55;;;;;;;;;48.50;39.00;;;;;;;;5051043;28;45623;-68
2022/04/25 08:23:22;;;;;;;;;47.75;38.50;;;;;;;;5052846;28;45575;-67
2022/04/25 08:25:47;;;;;;;;;49.25;40.75;;;;;;;;5051392;28;45710;-68
2022/04/25 08:28:14;;;;;;;;;50.50;39.75;;;;;;;;5051186;28;45355;-69
2022/04/25 08:30:39;;;;;;;;;47.75;37.75;;;;;;;;5051093;28;45608;-68
2022/04/25 08:33:04;;;;;;;;;50.50;41.50;;;;;;;;5051170;28;46310;-69
2022/04/25 08:35:30;;;;;;;;;44.75;37.50;;;;;;;;5037976;28;45430;-69
2022/04/25 08:37:55;;;;;;;;;46.50;38.50;;;;;;;;5051741;28;45376;-69
2022/04/25 08:40:21;;;;;;;;;52.75;42.00;;;;;;;;5051278;28;45583;-69
2022/04/25 08:42:46;;;;;;;;;43.50;38.00;;;;;;;;5036277;28;46302;-69
2022/04/25 08:45:12;;;;;;;;;46.50;37.75;;;;;;;;5051082;28;45581;-69
2022/04/25 08:47:47;;;;;;;;;43.75;37.00;;;;;;;;5054202;28;45456;-68
2022/04/25 08:50:12;;;;;;;;;46.00;37.00;;;;;;;;5054580;28;45530;-69
2022/04/25 08:52:40;;;;;;;;;51.75;39.75;;;;;;;;5054407;28;45307;-69
2022/04/25 08:55:06;;;;;;;;;43.25;36.25;;;;;;;;5054487;28;45494;-68
2022/04/25 08:57:32;;;;;;;;;42.50;36.75;;;;;;;;5054852;28;45420;-69
2022/04/25 08:59:59;;;;;;;;;43.50;39.50;;;;;;;;5054673;28;45439;-69
2022/04/25 09:02:25;;;;;;;;;43.00;38.00;;;;;;;;5052214;28;47193;-69
2022/04/25 09:04:50;;;;;;;;;41.25;38.00;;;;;;;;5040687;28;45456;-69
2022/04/25 09:07:16;;;;;;;;;44.50;38.00;;;;;;;;5054396;28;45901;-69
2022/04/25 09:09:42;;;;;;;;;29.25;29.25;;;;;;;;5053829;28;45446;-69
2022/04/25 09:12:11;;;;;;;;;33.50;28.25;;;;;;;;5054480;28;45385;-69
2022/04/25 09:14:37;;;;;;;;;42.75;37.75;;;;;;;;5055735;28;45537;-69
2022/04/25 09:17:03;;;;;;;;;47.00;38.50;;;;;;;;5055696;28;45366;-69
2022/04/25 09:19:29;;;;;;;;;48.00;40.75;;;;;;;;5053735;28;45506;-69
2022/04/25 09:21:55;;;;;;;;;40.00;36.25;;;;;;;;5053883;28;46559;-69
2022/04/25 09:24:20;;;;;;;;;45.00;38.75;;;;;;;;5053745;28;45268;-68
2022/04/25 09:26:46;;;;;;;;;48.00;40.25;;;;;;;;5054244;28;45315;-68
2022/04/25 09:29:12;;;;;;;;;42.00;36.25;;;;;;;;5056118;28;45490;-69
2022/04/25 09:31:46;;;;;;;;;47.00;37.00;;;;;;;;5053616;28;47434;-70
2022/04/25 09:34:15;;;;;;;;;42.50;35.00;;;;;;;;5053719;28;45490;-70
2022/04/25 09:36:47;;;;;;;;;41.25;35.50;;;;;;;;5054071;28;45440;-69
2022/04/25 09:39:30;;;;;;;;;44.50;37.50;;;;;;;;5035464;28;45607;-70
2022/04/25 09:41:56;;;;;;;;;41.75;34.25;;;;;;;;5053444;28;46867;-67
2022/04/25 09:44:21;;;;;;;;;41.75;33.00;;;;;;;;5055753;28;45478;-69
2022/04/25 09:46:47;;;;;;;;;36.50;30.25;;;;;;;;5053918;28;45274;-69
2022/04/25 09:49:18;;;;;;;;;41.00;35.50;;;;;;;;5053236;28;45526;-70
2022/04/25 09:51:58;;;;;;;;;38.50;32.50;;;;;;;;5053211;28;45605;-70
2022/04/25 09:54:24;;;;;;;;;38.00;32.50;;;;;;;;5053327;28;45329;-68
2022/04/25 09:56:51;;;;;;;;;42.50;33.50;;;;;;;;5053752;28;45293;-68
2022/04/25 09:59:16;;;;;;;;;41.25;34.25;;;;;;;;5053745;28;45366;-69
2022/04/25 10:01:43;;;;;;;;;36.00;32.25;;;;;;;;5053094;28;46463;-69
2022/04/25 10:04:27;;;;;;;;;43.00;35.50;;;;;;;;5053805;28;45411;-69
2022/04/25 10:06:52;;;;;;;;;41.00;35.50;;;;;;;;5053332;28;45340;-69
2022/04/25 10:09:20;;;;;;;;;37.00;32.25;;;;;;;;5053078;28;45527;-69
2022/04/25 10:11:46;;;;;;;;;42.25;34.50;;;;;;;;5052544;28;46159;-69
2022/04/25 10:14:11;;;;;;;;;31.75;28.75;;;;;;;;5054406;28;45306;-69
2022/04/25 10:16:37;;;;;;;;;31.50;28.25;;;;;;;;5052198;28;45388;-69
2022/04/25 10:19:03;;;;;;;;;32.00;28.75;;;;;;;;5038824;28;45329;-69
2022/04/25 10:21:31;;;;;;;;;33.25;28.75;;;;;;;;5052685;28;46426;-69
2022/04/25 10:23:59;;;;;;;;;28.00;25.75;;;;;;;;5036626;28;45526;-69
2022/04/25 10:26:26;;;;;;;;;28.25;25.50;;;;;;;;5055389;28;45365;-69
2022/04/25 10:28:54;;;;;;;;;23.50;21.75;;;;;;;;5052686;28;45601;-70
2022/04/25 10:31:30;;;;;;;;;24.00;22.00;;;;;;;;5052348;28;47096;-69
2022/04/25 10:33:58;;;;;;;;;22.00;19.25;;;;;;;;5052512;28;45452;-69
2022/04/25 10:36:38;;;;;;;;;26.50;24.75;;;;;;;;5052929;28;45394;-69
2022/04/25 10:39:11;;;;;;;;;26.00;26.00;;;;;;;;5038128;28;45381;-70
2022/04/25 10:44:20;;;;;;;;;26.50;25.50;;;;;;;;5053867;28;45340;-69
2022/04/25 10:47:03;;;;;;;;;24.00;21.75;;;;;;;;5052224;28;45325;-69
2022/04/25 10:49:33;;;;;;;;;26.00;23.25;;;;;;;;5052806;28;45490;-69
2022/04/25 10:51:58;;;;;;;;;27.25;25.50;;;;;;;;5052676;28;46661;-70
2022/04/25 10:54:27;;;;;;;;;21.50;18.75;;;;;;;;5052722;28;45419;-69
2022/04/25 10:57:08;;;;;;;;;18.75;17.25;;;;;;;;5052543;28;45431;-69
2022/04/25 10:59:33;;;;;;;;;19.00;15.50;;;;;;;;5050549;28;45455;-69
2022/04/25 11:01:58;;;;;;;;;30.25;27.00;;;;;;;;5052907;28;46298;-69
2022/04/25 11:04:23;;;;;;;;;19.50;18.50;;;;;;;;5052283;28;45192;-69
2022/04/25 11:07:09;;;;;;;;;25.00;21.50;;;;;;;;5052509;28;45482;-68
2022/04/25 11:09:40;;;;;;;;;32.50;29.00;;;;;;;;5051553;28;45524;-70
2022/04/25 11:12:06;;;;;;;;;24.50;22.00;;;;;;;;5052445;28;46176;-69
2022/04/25 11:14:31;;;;;;;;;19.50;19.25;;;;;;;;5053439;28;45446;-69
2022/04/25 11:17:10;;;;;;;;;18.25;17.25;;;;;;;;5051216;28;45344;-69
2022/04/25 11:19:53;;;;;;;;;12.50;12.50;;;;;;;;5052658;28;45317;-69
2022/04/25 11:22:31;;;;;;;;;21.00;16.50;;;;;;;;5051573;28;47051;-69
2022/04/25 11:24:57;;;;;;;;;22.00;20.75;;;;;;;;5051852;28;45278;-69
2022/04/25 11:27:22;;;;;;;;;18.00;18.00;;;;;;;;5052295;28;45336;-68
2022/04/25 11:30:07;;;;;;;;;19.75;18.75;;;;;;;;5051623;28;45339;-69
2022/04/25 11:32:37;;;;;;;;;19.75;19.75;;;;;;;;5049945;28;47316;-69
2022/04/25 11:35:04;;;;;;;;;21.00;21.00;;;;;;;;5052835;28;45510;-68
2022/04/25 11:37:30;;;;;;;;;19.00;17.75;;;;;;;;5051606;28;45320;-69
2022/04/25 11:39:57;;;;;;;;;16.75;16.25;;;;;;;;5052024;28;45353;-69
2022/04/25 11:42:24;;;;;;;;;15.00;15.00;;;;;;;;5051819;28;45467;-68
2022/04/25 11:44:49;;;;;;;;;16.75;15.25;;;;;;;;5051873;28;45368;-70
2022/04/25 11:47:18;;;;;;;;;14.75;13.75;;;;;;;;5053957;28;45516;-69
2022/04/25 11:49:43;;;;;;;;;15.50;15.25;;;;;;;;5051126;28;45449;-70
2022/04/25 11:52:12;;;;;;;;;14.75;14.00;;;;;;;;5051391;28;46062;-69
2022/04/25 11:54:40;;;;;;;;;14.75;12.25;;;;;;;;5051217;28;45456;-69
2022/04/25 11:57:05;;;;;;;;;17.00;15.00;;;;;;;;5051312;28;45233;-69
2022/04/25 11:59:31;;;;;;;;;12.00;11.75;;;;;;;;5052393;28;45376;-70
2022/04/25 12:01:56;;;;;;;;;12.50;11.50;;;;;;;;5038181;28;45705;-69
2022/04/25 12:04:21;;;;;;;;;14.25;12.50;;;;;;;;5052018;28;45684;-69
2022/04/25 12:06:47;;;;;;;;;12.50;12.50;;;;;;;;5051885;28;45590;-69
2022/04/25 12:17:34;;;;;;;;;12.00;10.75;;;;;;;;5053558;28;45292;-69
2022/04/25 12:20:02;;;;;;;;;12.00;10.00;;;;;;;;5050772;28;45318;-69
2022/04/25 12:22:27;;;;;;;;;11.25;8.50;;;;;;;;5053341;28;46067;-69
2022/04/25 12:25:09;;;;;;;;;9.00;9.00;;;;;;;;5054598;28;45447;-69
2022/04/25 12:27:34;;;;;;;;;10.25;10.25;;;;;;;;5053813;28;45261;-70
2022/04/25 12:30:04;;;;;;;;;11.50;9.50;;;;;;;;5036302;28;45418;-70
2022/04/25 12:32:29;;;;;;;;;9.00;9.00;;;;;;;;5052655;28;46238;-70
2022/04/25 12:34:54;;;;;;;;;4.00;4.00;;;;;;;;5054767;28;45513;-69
2022/04/25 12:37:19;;;;;;;;;7.75;7.75;;;;;;;;5054320;28;45418;-69
2022/04/25 12:40:03;;;;;;;;;7.50;7.00;;;;;;;;5053519;28;45448;-71
2022/04/25 12:42:44;;;;;;;;;8.00;8.00;;;;;;;;5053406;28;45459;-70
2022/04/25 12:45:09;;;;;;;;;10.00;9.25;;;;;;;;5039530;28;45514;-69
2022/04/25 12:47:35;;;;;;;;;7.75;7.75;;;;;;;;5055330;28;45418;-68
2022/04/25 12:50:01;;;;;;;;;7.75;7.75;;;;;;;;5055178;28;45354;-68
2022/04/25 12:52:26;;;;;;;;;9.00;8.50;;;;;;;;5040555;28;48209;-70
2022/04/25 12:54:54;;;;;;;;;8.00;8.00;;;;;;;;5054037;28;45546;-69
2022/04/25 12:57:21;;;;;;;;;6.00;6.00;;;;;;;;5054151;28;45627;-70
2022/04/25 12:59:49;;;;;;;;;6.25;6.25;;;;;;;;5054110;28;45501;-70
2022/04/25 13:02:16;;;;;;;;;6.75;6.00;;;;;;;;5055993;28;45354;-70
2022/04/25 13:04:52;;;;;;;;;6.50;6.50;;;;;;;;5054497;28;46510;-70
2022/04/25 13:07:20;;;;;;;;;6.50;6.50;;;;;;;;5053665;28;45508;-70
2022/04/25 13:09:46;;;;;;;;;9.00;8.25;;;;;;;;5053716;28;45342;-68
2022/04/25 13:12:14;;;;;;;;;5.75;5.00;;;;;;;;5053238;28;45558;-69
2022/04/25 13:14:40;;;;;;;;;7.00;6.00;;;;;;;;5054715;28;48382;-69
2022/04/25 13:17:06;;;;;;;;;9.25;9.25;;;;;;;;5055246;28;45312;-69
2022/04/25 13:19:32;;;;;;;;;9.00;7.75;;;;;;;;5053974;28;45509;-69
2022/04/25 13:21:57;;;;;;;;;7.00;6.75;;;;;;;;5053299;28;47144;-68
2022/04/25 13:24:22;;;;;;;;;8.00;8.00;;;;;;;;5054186;28;45229;-71
2022/04/25 13:26:48;;;;;;;;;7.50;7.25;;;;;;;;5053772;28;45293;-68
2022/04/25 13:29:13;;;;;;;;;6.75;6.50;;;;;;;;5055629;28;45329;-68
2022/04/25 13:31:39;;;;;;;;;4.75;4.75;;;;;;;;5053529;28;46329;-69
2022/04/25 13:34:04;;;;;;;;;5.00;3.25;;;;;;;;5053620;28;45465;-68
2022/04/25 13:36:29;;;;;;;;;4.50;4.50;;;;;;;;5054214;28;45407;-70
2022/04/25 13:38:54;;;;;;;;;4.00;4.00;;;;;;;;5054110;28;45345;-67
2022/04/25 13:41:20;;;;;;;;;7.75;6.00;;;;;;;;5055207;28;46060;-69
2022/04/25 13:43:45;;;;;;;;;6.75;6.75;;;;;;;;5053168;28;45309;-70
2022/04/25 13:46:10;;;;;;;;;6.50;6.25;;;;;;;;5039335;28;45369;-69
2022/04/25 13:48:36;;;;;;;;;14.00;14.00;;;;;;;;5053584;28;45378;-70
2022/04/25 13:51:01;;;;;;;;;7.50;6.25;;;;;;;;5053445;28;46232;-69
2022/04/25 13:53:26;;;;;;;;;4.75;4.75;;;;;;;;5055940;28;45279;-70
2022/04/25 13:55:52;;;;;;;;;10.75;10.25;;;;;;;;5052812;28;45626;-69
2022/04/25 13:58:17;;;;;;;;;7.00;5.00;;;;;;;;5053610;28;45316;-70
2022/04/25 14:00:42;;;;;;;;;5.00;5.00;;;;;;;;5052515;28;46118;-69
2022/04/25 14:03:11;;;;;;;;;4.00;4.00;;;;;;;;5052755;28;45392;-69
2022/04/25 14:05:41;;;;;;;;;6.25;5.50;;;;;;;;5054477;28;45324;-70
2022/04/25 14:08:08;;;;;;;;;14.50;10.25;;;;;;;;5054946;28;45614;-69
2022/04/25 14:10:34;;;;;;;;;4.00;4.00;;;;;;;;5052692;28;46187;-69
2022/04/25 14:12:59;;;;;;;;;6.00;6.00;;;;;;;;5052664;28;45322;-69
2022/04/25 14:15:25;;;;;;;;;4.25;4.00;;;;;;;;5034925;28;45433;-69
2022/04/25 14:17:50;;;;;;;;;6.00;6.00;;;;;;;;5053210;28;45260;-69
2022/04/25 14:20:15;;;;;;;;;6.00;5.25;;;;;;;;5054306;28;46385;-69
2022/04/25 14:22:40;;;;;;;;;4.25;4.25;;;;;;;;5052582;28;45480;-69
2022/04/25 14:25:07;;;;;;;;;3.00;3.00;;;;;;;;5052493;28;45423;-69
2022/04/25 14:27:37;;;;;;;;;3.75;3.50;;;;;;;;5052705;28;45571;-69
2022/04/25 14:30:02;;;;;;;;;3.50;3.50;;;;;;;;5052066;28;46601;-71
2022/04/25 14:32:29;;;;;;;;;6.75;4.00;;;;;;;;5054238;28;45385;-69
2022/04/25 14:34:54;;;;;;;;;2.50;2.50;;;;;;;;5051440;28;45325;-70
2022/04/25 14:37:20;;;;;;;;;5.50;5.00;;;;;;;;5052394;28;45651;-70
2022/04/25 14:39:45;;;;;;;;;4.75;4.75;;;;;;;;5052081;28;46266;-70
2022/04/25 14:42:10;;;;;;;;;3.00;3.00;;;;;;;;5052158;28;45368;-70
2022/04/25 14:44:37;;;;;;;;;6.25;5.00;;;;;;;;5053472;28;45375;-69
2022/04/25 14:47:03;;;;;;;;;4.00;4.00;;;;;;;;5053136;28;45571;-69
2022/04/25 14:54:56;;;;;;;;;5.25;5.00;;;;;;;;5052219;28;45439;-70
2022/04/25 14:57:22;;;;;;;;;4.25;4.25;;;;;;;;5052090;28;45331;-70
2022/04/25 14:59:47;;;;;;;;;7.00;7.00;;;;;;;;5052181;28;46147;-70